METAR Data
IDs: Format: Raw Decoded Include TAF

Data at: 0047 UTC 20 Jul 2019

METAR for:PACD (Cold Bay Arpt, AK, US)
Text:PACD 200019Z 28019KT 10SM BKN010 OVC016 14/11 A3031 RMK AO2 T01390111
Temperature: 13.9°C ( 57°F)
Dewpoint: 11.1°C ( 52°F) [RH = 83%]
Pressure (altimeter):30.31 inches Hg (1026.5 mb)
Winds:from the W (280 degrees) at 22 MPH (19 knots; 9.8 m/s)
Visibility:10 or more sm (16+ km)
Ceiling:1000 feet AGL
Clouds: broken clouds at 1000 feet AGL, overcast cloud deck at 1600 feet AGL
Text:PACD 192353Z 28019KT 10SM FEW006 BKN009 OVC015 13/11 A3031 RMK AO2 RAB10E38 SLP264 P0000 60001 T01330111 10133 20111 50002
Temperature: 13.3°C ( 56°F)
Dewpoint: 11.1°C ( 52°F) [RH = 87%]
Pressure (altimeter):30.31 inches Hg (1026.5 mb) [Sea level pressure: 1026.4 mb]
Winds:from the W (280 degrees) at 22 MPH (19 knots; 9.8 m/s)
Visibility:10 or more sm (16+ km)
Ceiling:900 feet AGL
Clouds: few clouds at 600 feet AGL, broken clouds at 900 feet AGL, overcast cloud deck at 1500 feet AGL
Text:PACD 192340Z 28017KT 9SM BKN007 OVC015 13/12 A3031 RMK AO2 RAB10E38 P0000 T01330117
Temperature: 13.3°C ( 56°F)
Dewpoint: 11.7°C ( 53°F) [RH = 90%]
Pressure (altimeter):30.31 inches Hg (1026.5 mb)
Winds:from the W (280 degrees) at 20 MPH (17 knots; 8.7 m/s)
Visibility: 9 sm ( 14 km)
Ceiling:700 feet AGL
Clouds: broken clouds at 700 feet AGL, overcast cloud deck at 1500 feet AGL
Text:PACD 192323Z 28021KT 2SM -RA BR BKN007 OVC015 13/11 A3031 RMK AO2 VIS 1 3/4V3 RAB10 P0000 T01280111
Temperature: 12.8°C ( 55°F)
Dewpoint: 11.1°C ( 52°F) [RH = 89%]
Pressure (altimeter):30.31 inches Hg (1026.5 mb)
Winds:from the W (280 degrees) at 24 MPH (21 knots; 10.8 m/s)
Visibility: 2.00 sm ( 3.22 km)
Ceiling:700 feet AGL
Clouds: broken clouds at 700 feet AGL, overcast cloud deck at 1500 feet AGL
Weather:-RA BR (light rain, mist)
Text:PACD 192253Z 28019KT 3SM BR BKN005 BKN015 OVC026 12/11 A3031 RMK AO2 RAB2155E43 SLP266 P0000 T01220111
Temperature: 12.2°C ( 54°F)
Dewpoint: 11.1°C ( 52°F) [RH = 93%]
Pressure (altimeter):30.31 inches Hg (1026.5 mb) [Sea level pressure: 1026.6 mb]
Winds:from the W (280 degrees) at 22 MPH (19 knots; 9.8 m/s)
Visibility: 3 sm ( 5 km)
Ceiling:500 feet AGL
Clouds: broken clouds at 500 feet AGL, broken clouds at 1500 feet AGL, overcast cloud deck at 2600 feet AGL
Weather:BR (mist)
Text:PACD 192200Z 28017KT 3SM -RA BR BKN005 BKN015 OVC026 12/11 A3031 RMK AO2 RAB2155 P0000 T01220106
Temperature: 12.2°C ( 54°F)
Dewpoint: 10.6°C ( 51°F) [RH = 90%]
Pressure (altimeter):30.31 inches Hg (1026.5 mb)
Winds:from the W (280 degrees) at 20 MPH (17 knots; 8.7 m/s)
Visibility: 3 sm ( 5 km)
Ceiling:500 feet AGL
Clouds: broken clouds at 500 feet AGL, broken clouds at 1500 feet AGL, overcast cloud deck at 2600 feet AGL
Weather:-RA BR (light rain, mist)
Text:PACD 192153Z 28016KT 3SM BR SCT005 BKN010 OVC026 13/11 A3031 RMK AO2 RAE44 SLP265 P0000 T01330111
Temperature: 13.3°C ( 56°F)
Dewpoint: 11.1°C ( 52°F) [RH = 87%]
Pressure (altimeter):30.31 inches Hg (1026.5 mb) [Sea level pressure: 1026.5 mb]
Winds:from the W (280 degrees) at 18 MPH (16 knots; 8.2 m/s)
Visibility: 3 sm ( 5 km)
Ceiling:1000 feet AGL
Clouds: scattered clouds at 500 feet AGL, broken clouds at 1000 feet AGL, overcast cloud deck at 2600 feet AGL
Weather:BR (mist)
Text:PACD 192112Z 28016KT 3SM -RA BR BKN005 BKN010 OVC016 12/11 A3030 RMK AO2 P0000 T01220111
Temperature: 12.2°C ( 54°F)
Dewpoint: 11.1°C ( 52°F) [RH = 93%]
Pressure (altimeter):30.30 inches Hg (1026.2 mb)
Winds:from the W (280 degrees) at 18 MPH (16 knots; 8.2 m/s)
Visibility: 3 sm ( 5 km)
Ceiling:500 feet AGL
Clouds: broken clouds at 500 feet AGL, broken clouds at 1000 feet AGL, overcast cloud deck at 1600 feet AGL
Weather:-RA BR (light rain, mist)
Text:PACD 192053Z 28018KT 4SM -RA BR SCT005 BKN010 OVC015 12/11 A3030 RMK AO2 RAB03E14B38 SLP261 P0000 60001 T01220111 51006
Temperature: 12.2°C ( 54°F)
Dewpoint: 11.1°C ( 52°F) [RH = 93%]
Pressure (altimeter):30.30 inches Hg (1026.2 mb) [Sea level pressure: 1026.1 mb]
Winds:from the W (280 degrees) at 21 MPH (18 knots; 9.3 m/s)
Visibility: 4 sm ( 6 km)
Ceiling:1000 feet AGL
Clouds: scattered clouds at 500 feet AGL, broken clouds at 1000 feet AGL, overcast cloud deck at 1500 feet AGL
Weather:-RA BR (light rain, mist)
Text:PACD 192021Z 28016KT 7SM BKN006 OVC011 12/11 A3030 RMK AO2 RAB03E14 P0000 T01220111
Temperature: 12.2°C ( 54°F)
Dewpoint: 11.1°C ( 52°F) [RH = 93%]
Pressure (altimeter):30.30 inches Hg (1026.2 mb)
Winds:from the W (280 degrees) at 18 MPH (16 knots; 8.2 m/s)
Visibility: 7 sm ( 11 km)
Ceiling:600 feet AGL
Clouds: broken clouds at 600 feet AGL, overcast cloud deck at 1100 feet AGL
Text:PACD 192014Z 28016KT 7SM SCT006 OVC011 12/11 A3030 RMK AO2 RAB03E14 P0000 T01220106
Temperature: 12.2°C ( 54°F)
Dewpoint: 10.6°C ( 51°F) [RH = 90%]
Pressure (altimeter):30.30 inches Hg (1026.2 mb)
Winds:from the W (280 degrees) at 18 MPH (16 knots; 8.2 m/s)
Visibility: 7 sm ( 11 km)
Ceiling:1100 feet AGL
Clouds: scattered clouds at 600 feet AGL, overcast cloud deck at 1100 feet AGL
Text:PACD 192009Z 28016KT 2 1/2SM -RA BR BKN006 OVC013 12/11 A3030 RMK AO2 RAB03 P0000 T01170106
Temperature: 11.7°C ( 53°F)
Dewpoint: 10.6°C ( 51°F) [RH = 93%]
Pressure (altimeter):30.30 inches Hg (1026.2 mb)
Winds:from the W (280 degrees) at 18 MPH (16 knots; 8.2 m/s)
Visibility: 2.50 sm ( 4.02 km)
Ceiling:600 feet AGL
Clouds: broken clouds at 600 feet AGL, overcast cloud deck at 1300 feet AGL
Weather:-RA BR (light rain, mist)
Text:PACD 191953Z 28017KT 9SM BKN009 OVC017 12/10 A3030 RMK AO2 RAE17 SLP261 P0001 T01170100
Temperature: 11.7°C ( 53°F)
Dewpoint: 10.0°C ( 50°F) [RH = 89%]
Pressure (altimeter):30.30 inches Hg (1026.2 mb) [Sea level pressure: 1026.1 mb]
Winds:from the W (280 degrees) at 20 MPH (17 knots; 8.7 m/s)
Visibility: 9 sm ( 14 km)
Ceiling:900 feet AGL
Clouds: broken clouds at 900 feet AGL, overcast cloud deck at 1700 feet AGL
Text:PACD 191942Z 28015KT 6SM BR BKN011 BKN017 OVC025 12/10 A3030 RMK AO2 RAE17 P0001 T01170100
Temperature: 11.7°C ( 53°F)
Dewpoint: 10.0°C ( 50°F) [RH = 89%]
Pressure (altimeter):30.30 inches Hg (1026.2 mb)
Winds:from the W (280 degrees) at 17 MPH (15 knots; 7.7 m/s)
Visibility: 6 sm ( 10 km)
Ceiling:1100 feet AGL
Clouds: broken clouds at 1100 feet AGL, broken clouds at 1700 feet AGL, overcast cloud deck at 2500 feet AGL
Weather:BR (mist)
Text:PACD 191935Z 27016KT 10SM SCT009 BKN015 OVC025 12/11 A3030 RMK AO2 RAE17 P0001 T01220106
Temperature: 12.2°C ( 54°F)
Dewpoint: 10.6°C ( 51°F) [RH = 90%]
Pressure (altimeter):30.30 inches Hg (1026.2 mb)
Winds:from the W (270 degrees) at 18 MPH (16 knots; 8.2 m/s)
Visibility:10 or more sm (16+ km)
Ceiling:1500 feet AGL
Clouds: scattered clouds at 900 feet AGL, broken clouds at 1500 feet AGL, overcast cloud deck at 2500 feet AGL
Text:PACD 191920Z 29018KT 9SM SCT005 OVC011 12/11 A3030 RMK AO2 RAE17 P0001 T01170106
Temperature: 11.7°C ( 53°F)
Dewpoint: 10.6°C ( 51°F) [RH = 93%]
Pressure (altimeter):30.30 inches Hg (1026.2 mb)
Winds:from the WNW (290 degrees) at 21 MPH (18 knots; 9.3 m/s)
Visibility: 9 sm ( 14 km)
Ceiling:1100 feet AGL
Clouds: scattered clouds at 500 feet AGL, overcast cloud deck at 1100 feet AGL
Text:PACD 191853Z 28019KT 2 1/2SM -RA BR BKN006 OVC012 11/10 A3030 RMK AO2 SLP259 P0000 T01110100
Temperature: 11.1°C ( 52°F)
Dewpoint: 10.0°C ( 50°F) [RH = 93%]
Pressure (altimeter):30.30 inches Hg (1026.2 mb) [Sea level pressure: 1025.9 mb]
Winds:from the W (280 degrees) at 22 MPH (19 knots; 9.8 m/s)
Visibility: 2.50 sm ( 4.02 km)
Ceiling:600 feet AGL
Clouds: broken clouds at 600 feet AGL, overcast cloud deck at 1200 feet AGL
Weather:-RA BR (light rain, mist)

TAF for:PACD (Cold Bay Arpt, AK, US) issued at 2341 UTC 19 Jul 2019
Text:PACD 192341Z 2000/2024 29020KT 2SM -SHRA SCT006 BKN007 OVC015
Forecast period:0000 to 0400 UTC 20 July 2019
Forecast type:FROM: standard forecast or significant change
Winds:from the WNW (290 degrees) at 23 MPH (20 knots; 10.3 m/s)
Visibility: 2.00 sm ( 3.22 km)
Ceiling:700 feet AGL
Clouds: scattered clouds at 600 feet AGL, broken clouds at 700 feet AGL, overcast cloud deck at 1500 feet AGL
Weather:-SHRA (light rain showers)
Text:TEMPO 2000/2004 5SM -RA BR BKN010
Forecast period:0000 to 0400 UTC 20 July 2019
Forecast type:TEMPORARY: The following changes expected for less than half the time period
Visibility: 5 sm ( 8 km)
Ceiling:1000 feet AGL
Clouds: broken clouds at 1000 feet AGL
Weather:-RA BR (light rain, mist)
Text:FM200400 29016KT 5SM BR BKN009
Forecast period:0400 UTC 20 July 2019 to 0000 UTC 21 July 2019
Forecast type:FROM: standard forecast or significant change
Winds:from the WNW (290 degrees) at 18 MPH (16 knots; 8.2 m/s)
Visibility: 5 sm ( 8 km)
Ceiling:900 feet AGL
Clouds: broken clouds at 900 feet AGL
Weather:BR (mist)